Time;durP1;ratioP1;P1;durP2;ratioP2;P2;SDS_P1;SDS_P2;PMS_P1;PMS_P2;Temp;Humidity;BMP_temperature;BMP_pressure;BME280_temperature;BME280_humidity;BME280_pressure;Samples;Min_cycle;Max_cycle;Signal;HPM_P1;HPM_P2
2023/05/03 00:01:01;;;;;;;10.13;5.05;;;;;;;4.90;65.55;101494.31;5052804;28;20056;-59
2023/05/03 00:03:29;;;;;;;7.07;4.22;;;;;;;4.87;65.78;101493.72;5050901;28;20066;-59
2023/05/03 00:05:56;;;;;;;7.03;4.20;;;;;;;4.81;66.32;101486.44;5050376;28;20060;-60
2023/05/03 00:08:24;;;;;;;7.13;4.53;;;;;;;4.78;65.33;101486.94;5049410;28;20072;-60
2023/05/03 00:10:51;;;;;;;9.00;4.60;;;;;;;4.73;66.41;101489.63;5049988;28;20513;-59
2023/05/03 00:13:20;;;;;;;8.20;4.53;;;;;;;4.75;66.41;101492.97;5050003;28;20049;-59
2023/05/03 00:15:47;;;;;;;7.22;5.05;;;;;;;4.70;66.20;101503.06;5053059;28;20049;-59
2023/05/03 00:18:19;;;;;;;8.73;4.65;;;;;;;4.64;65.60;101500.22;5040643;28;20414;-59
2023/05/03 00:20:49;;;;;;;5.95;4.50;;;;;;;4.62;66.14;101496.88;5040867;28;20499;-60
2023/05/03 00:23:16;;;;;;;5.65;4.32;;;;;;;4.65;66.84;101495.53;5035719;28;20060;-60
2023/05/03 00:25:44;;;;;;;6.20;4.10;;;;;;;4.63;66.62;101492.19;5035325;28;20045;-60
2023/05/03 00:28:11;;;;;;;7.60;4.43;;;;;;;4.61;66.24;101491.63;5035539;28;20049;-59
2023/05/03 00:30:42;;;;;;;7.78;4.60;;;;;;;4.55;65.97;101487.09;5036017;28;20056;-60
2023/05/03 00:33:09;;;;;;;7.00;4.18;;;;;;;4.56;66.69;101480.50;5053250;28;20391;-59
2023/05/03 00:35:37;;;;;;;6.95;4.90;;;;;;;4.54;65.97;101482.66;5051674;28;20076;-59
2023/05/03 00:38:04;;;;;;;5.90;3.88;;;;;;;4.51;66.02;101477.63;5050597;28;20536;-58
2023/05/03 00:40:31;;;;;;;6.50;4.65;;;;;;;4.44;67.13;101475.88;5048796;28;20057;-58
2023/05/03 00:42:58;;;;;;;6.70;4.07;;;;;;;4.37;67.02;101483.47;5055066;28;20056;-58
2023/05/03 00:45:26;;;;;;;7.70;4.43;;;;;;;4.37;66.40;101490.91;5043790;28;20052;-58
2023/05/03 00:47:54;;;;;;;7.47;4.45;;;;;;;4.27;67.31;101484.13;5053364;28;20061;-58
2023/05/03 00:50:24;;;;;;;8.05;4.20;;;;;;;4.29;66.99;101481.13;5042883;28;20117;-58
2023/05/03 00:52:52;;;;;;;11.10;4.65;;;;;;;4.28;66.86;101479.44;5037541;28;20053;-58
2023/05/03 00:55:21;;;;;;;6.63;4.53;;;;;;;4.28;67.19;101476.66;5047497;28;20053;-58
2023/05/03 00:57:48;;;;;;;6.60;4.32;;;;;;;4.31;67.02;101478.13;5051945;28;20052;-58
2023/05/03 01:00:16;;;;;;;5.72;3.90;;;;;;;4.29;67.46;101481.13;5048266;28;20654;-59
2023/05/03 01:02:44;;;;;;;9.10;4.22;;;;;;;4.22;67.06;101480.41;5052055;28;20061;-59
2023/05/03 01:05:12;;;;;;;10.60;4.57;;;;;;;4.13;67.81;101488.25;5045784;28;20057;-57
2023/05/03 01:07:51;;;;;;;6.68;4.82;;;;;;;4.11;66.60;101503.38;5034401;28;20073;-57
2023/05/03 01:10:27;;;;;;;5.93;3.83;;;;;;;4.13;67.14;101510.31;5046133;28;20045;-57
2023/05/03 01:13:04;;;;;;;6.40;4.05;;;;;;;4.07;66.93;101512.16;5034913;28;20486;-57
2023/05/03 01:15:44;;;;;;;8.20;4.40;;;;;;;4.02;66.63;101511.19;5044196;28;20391;-57
2023/05/03 01:18:14;;;;;;;5.00;3.45;;;;;;;4.01;67.45;101510.38;5049088;28;20055;-57
2023/05/03 01:20:47;;;;;;;4.97;4.13;;;;;;;3.99;66.41;101509.78;5046682;28;20061;-57
2023/05/03 01:23:28;;;;;;;7.40;4.13;;;;;;;3.96;67.10;101513.00;5050112;28;20064;-57
2023/05/03 01:25:57;;;;;;;11.60;4.35;;;;;;;3.94;67.53;101512.41;5038924;28;20061;-57
2023/05/03 01:28:24;;;;;;;6.85;4.13;;;;;;;3.89;66.27;101506.81;5049025;28;20374;-56
2023/05/03 01:30:54;;;;;;;6.93;4.10;;;;;;;3.88;66.82;101509.81;5047048;28;20060;-57
2023/05/03 01:33:29;;;;;;;7.07;4.00;;;;;;;3.84;67.85;101506.69;5037347;28;20492;-57
2023/05/03 01:36:02;;;;;;;6.07;3.92;;;;;;;3.78;67.63;101507.66;5046811;28;20053;-57
2023/05/03 01:38:33;;;;;;;5.63;4.30;;;;;;;3.73;67.56;101510.31;5036629;28;20054;-57
2023/05/03 01:41:06;;;;;;;9.20;4.88;;;;;;;3.66;68.16;101510.47;5046766;28;20053;-57
2023/05/03 01:43:38;;;;;;;8.32;5.20;;;;;;;3.63;68.24;101516.44;5035429;28;20045;-57
2023/05/03 01:46:05;;;;;;;6.72;4.70;;;;;;;3.60;68.53;101514.19;5041972;28;20068;-57
2023/05/03 01:48:36;;;;;;;9.60;4.93;;;;;;;3.66;67.69;101516.81;5042938;28;20406;-57
2023/05/03 01:51:03;;;;;;;8.70;5.03;;;;;;;3.69;68.69;101515.47;5045669;28;20065;-57
2023/05/03 01:53:30;;;;;;;8.07;5.20;;;;;;;3.62;68.65;101526.63;5046442;28;20053;-57
2023/05/03 01:55:57;;;;;;;8.38;5.47;;;;;;;3.61;68.92;101526.88;5038577;28;20052;-57
2023/05/03 01:58:26;;;;;;;9.98;5.50;;;;;;;3.64;67.65;101518.97;5050404;28;20052;-56
2023/05/03 02:00:53;;;;;;;9.88;5.45;;;;;;;3.59;68.13;101527.13;5036640;28;20053;-57
2023/05/03 02:03:21;;;;;;;8.65;5.25;;;;;;;3.59;68.82;101529.88;5039587;28;20056;-57
2023/05/03 02:05:48;;;;;;;9.35;5.45;;;;;;;3.54;68.98;101535.25;5043642;28;20491;-57
2023/05/03 02:08:15;;;;;;;12.43;5.32;;;;;;;3.51;68.56;101537.66;5038816;28;20056;-57
2023/05/03 02:10:44;;;;;;;6.32;5.05;;;;;;;3.51;69.09;101544.03;5046287;28;20050;-57
2023/05/03 02:13:13;;;;;;;8.10;5.00;;;;;;;3.47;68.42;101540.06;5042630;28;20053;-56
2023/05/03 02:15:41;;;;;;;8.30;5.30;;;;;;;3.48;68.35;101546.41;5039236;28;20061;-57
2023/05/03 02:18:09;;;;;;;9.15;5.00;;;;;;;3.45;68.21;101542.22;5034795;28;20491;-56
2023/05/03 02:20:36;;;;;;;9.43;5.20;;;;;;;3.44;67.93;101540.53;5037178;28;20054;-57
2023/05/03 02:23:04;;;;;;;10.27;4.70;;;;;;;3.35;69.18;101536.47;5039124;28;20048;-56
2023/05/03 02:25:31;;;;;;;6.97;5.10;;;;;;;3.36;69.38;101538.16;5048530;28;20541;-57
2023/05/03 02:27:59;;;;;;;8.07;5.00;;;;;;;3.30;69.04;101541.84;5036849;28;20065;-57
2023/05/03 02:30:26;;;;;;;7.47;4.70;;;;;;;3.36;68.03;101540.91;5032527;28;20053;-57
2023/05/03 02:32:55;;;;;;;8.13;5.30;;;;;;;3.35;69.40;101542.81;5044547;28;20060;-58
2023/05/03 02:35:22;;;;;;;8.45;5.60;;;;;;;3.33;68.99;101555.16;5048198;28;20057;-57
2023/05/03 02:37:50;;;;;;;7.70;5.05;;;;;;;3.29;68.34;101553.97;5050134;28;20402;-57
2023/05/03 02:40:17;;;;;;;8.15;5.53;;;;;;;3.27;68.36;101556.13;5033701;28;20075;-58
2023/05/03 02:42:44;;;;;;;8.60;4.78;;;;;;;3.21;69.35;101558.75;5049603;28;20413;-58
2023/05/03 02:45:13;;;;;;;8.77;5.07;;;;;;;3.23;68.96;101562.13;5040904;28;20071;-58
2023/05/03 02:47:41;;;;;;;7.10;4.53;;;;;;;3.28;69.43;101561.38;5039191;28;20053;-58
2023/05/03 02:50:12;;;;;;;12.80;5.35;;;;;;;3.23;68.01;101556.59;5048312;28;20491;-58
2023/05/03 02:52:42;;;;;;;7.22;4.72;;;;;;;3.18;68.90;101561.97;5036376;28;20056;-58
2023/05/03 02:55:09;;;;;;;;;;;;;;;3.11;68.95;101566.78;5045827;28;20413;-58
2023/05/03 02:57:37;;;;;;;6.80;4.95;;;;;;;3.11;69.46;101558.50;5037246;28;20289;-58
2023/05/03 03:00:05;;;;;;;8.85;5.45;;;;;;;3.05;68.26;101553.94;5036140;28;20072;-59
2023/05/03 03:02:33;;;;;;;9.15;4.85;;;;;;;3.07;68.11;101560.06;5048435;28;20060;-58
2023/05/03 03:05:00;;;;;;;7.63;4.32;;;;;;;3.12;68.57;101554.66;5042287;28;20055;-58
2023/05/03 03:07:29;;;;;;;7.50;4.85;;;;;;;3.13;68.42;101550.00;5045336;28;20482;-58
2023/05/03 03:09:56;;;;;;;6.35;4.43;;;;;;;3.12;68.94;101551.09;5040998;28;20049;-58
2023/05/03 03:12:24;;;;;;;8.27;5.10;;;;;;;3.13;69.17;101550.84;5034398;28;20064;-58
2023/05/03 03:14:51;;;;;;;8.35;5.10;;;;;;;3.11;69.09;101553.00;5040768;28;20045;-58
2023/05/03 03:17:18;;;;;;;8.68;5.22;;;;;;;3.07;69.14;101549.06;5037170;28;20045;-58
2023/05/03 03:19:45;;;;;;;9.68;5.82;;;;;;;3.02;68.56;101543.41;5051672;28;20060;-57
2023/05/03 03:22:13;;;;;;;9.23;5.63;;;;;;;3.01;69.56;101539.81;5034008;28;20076;-58
2023/05/03 03:24:41;;;;;;;7.53;4.75;;;;;;;3.07;68.81;101537.19;5041289;28;20052;-58
2023/05/03 03:27:08;;;;;;;6.70;5.03;;;;;;;3.03;68.18;101539.59;5047343;28;20075;-58
2023/05/03 03:29:36;;;;;;;9.57;5.53;;;;;;;3.02;69.24;101547.03;5039824;28;20081;-58
2023/05/03 03:32:03;;;;;;;8.80;5.45;;;;;;;2.99;68.91;101538.38;5042206;28;20065;-58
2023/05/03 03:34:31;;;;;;;7.40;5.72;;;;;;;2.93;69.59;101533.84;5053898;28;20049;-58
2023/05/03 03:36:58;;;;;;;9.93;5.50;;;;;;;2.94;69.31;101536.34;5053594;28;20048;-58
2023/05/03 03:39:25;;;;;;;9.32;5.80;;;;;;;2.98;69.81;101536.69;5044537;28;20049;-57
2023/05/03 03:41:54;;;;;;;8.73;5.60;;;;;;;2.87;68.57;101537.53;5052333;28;20049;-58
2023/05/03 03:44:21;;;;;;;7.25;5.32;;;;;;;2.89;69.45;101532.63;5050396;28;20060;-58
2023/05/03 03:46:48;;;;;;;7.32;5.10;;;;;;;2.92;68.96;101535.75;5052610;28;20049;-58
2023/05/03 03:49:16;;;;;;;8.02;5.18;;;;;;;2.95;69.50;101532.50;5041721;28;20053;-58
2023/05/03 03:51:43;;;;;;;7.43;4.70;;;;;;;2.98;69.14;101533.94;5054649;28;20536;-58
2023/05/03 03:54:10;;;;;;;7.63;5.18;;;;;;;2.93;68.56;101531.06;5053235;28;20049;-58
2023/05/03 03:56:37;;;;;;;8.90;5.68;;;;;;;2.95;69.16;101531.69;5048361;28;20057;-58
2023/05/03 03:59:07;;;;;;;11.13;5.45;;;;;;;2.95;68.00;101529.75;5040295;28;20060;-58
2023/05/03 04:01:34;;;;;;;7.22;5.20;;;;;;;2.91;68.96;101530.47;5051185;28;20110;-58
2023/05/03 04:04:01;;;;;;;6.88;4.70;;;;;;;2.92;68.96;101523.88;5052705;28;20048;-58
2023/05/03 04:06:28;;;;;;;8.02;5.40;;;;;;;2.94;69.39;101530.00;5038802;28;20053;-58
2023/05/03 04:08:56;;;;;;;8.45;5.78;;;;;;;2.92;69.43;101532.13;5043468;28;20060;-58
2023/05/03 04:11:23;;;;;;;9.20;6.18;;;;;;;2.88;68.76;101530.94;5058895;28;20057;-58
2023/05/03 04:13:50;;;;;;;8.82;6.10;;;;;;;2.89;68.93;101530.72;5058370;28;20057;-58
2023/05/03 04:16:19;;;;;;;12.40;6.47;;;;;;;2.89;69.23;101521.63;5058538;28;20053;-58
2023/05/03 04:18:46;;;;;;;9.02;5.90;;;;;;;2.93;69.45;101523.66;5050967;28;20052;-57
2023/05/03 04:21:13;;;;;;;9.20;6.35;;;;;;;2.98;68.60;101523.78;5046221;28;20540;-58
2023/05/03 04:23:42;;;;;;;9.20;6.05;;;;;;;3.05;68.67;101526.44;5047388;28;20045;-57
2023/05/03 04:26:10;;;;;;;12.38;5.88;;;;;;;3.08;68.88;101525.09;5057396;28;20053;-58
2023/05/03 04:28:37;;;;;;;8.65;5.75;;;;;;;3.05;68.83;101515.41;5058593;28;20053;-58
2023/05/03 04:31:05;;;;;;;9.05;6.28;;;;;;;3.09;69.48;101516.63;5048828;28;20052;-58
2023/05/03 04:33:33;;;;;;;9.35;5.95;;;;;;;3.10;68.33;101521.03;5047650;28;20056;-58
2023/05/03 04:36:01;;;;;;;10.30;6.50;;;;;;;3.16;68.96;101513.75;5048777;28;20056;-57
2023/05/03 04:38:28;;;;;;;10.70;6.60;;;;;;;3.20;69.18;101510.25;5055297;28;20417;-57
2023/05/03 04:40:56;;;;;;;11.25;6.72;;;;;;;3.22;68.82;101504.53;5053037;28;20049;-58
2023/05/03 04:43:23;;;;;;;13.57;7.05;;;;;;;3.29;68.96;101504.41;5057656;28;20398;-57
2023/05/03 04:45:52;;;;;;;10.23;7.07;;;;;;;3.33;67.86;101503.66;5054598;28;20049;-58
2023/05/03 04:48:19;;;;;;;7.82;6.30;;;;;;;3.37;68.40;101501.28;5047945;28;20072;-57
2023/05/03 04:50:48;;;;;;;11.68;6.93;;;;;;;3.45;68.42;101503.66;5035044;28;20076;-58
2023/05/03 04:53:15;;;;;;;8.18;6.07;;;;;;;3.45;68.40;101504.50;5038615;28;20470;-57
2023/05/03 04:55:43;;;;;;;11.57;6.78;;;;;;;3.49;68.69;101512.28;5053736;28;20056;-57
2023/05/03 04:58:10;;;;;;;8.57;6.43;;;;;;;3.54;67.84;101502.22;5039639;28;20129;-57
2023/05/03 05:00:37;;;;;;;8.10;5.93;;;;;;;3.64;67.15;101507.94;5040657;28;20049;-57
2023/05/03 05:03:05;;;;;;;10.40;6.55;;;;;;;3.65;68.27;101515.16;5053402;28;20057;-57
2023/05/03 05:05:33;;;;;;;9.73;6.20;;;;;;;3.65;67.26;101519.78;5052606;28;20064;-58
2023/05/03 05:08:01;;;;;;;10.13;6.18;;;;;;;3.71;67.00;101518.00;5039121;28;20053;-57
2023/05/03 05:10:29;;;;;;;10.50;6.28;;;;;;;3.77;67.57;101520.63;5033445;28;20053;-58
2023/05/03 05:12:56;;;;;;;11.25;6.63;;;;;;;3.80;67.24;101525.66;5034598;28;20053;-58
2023/05/03 05:15:24;;;;;;;11.40;6.90;;;;;;;3.88;67.03;101532.69;5044948;28;20076;-58
2023/05/03 05:17:51;;;;;;;8.93;6.50;;;;;;;3.95;66.99;101527.88;5038122;28;20060;-58
2023/05/03 05:20:18;;;;;;;10.23;7.47;;;;;;;4.05;67.69;101535.50;5041993;28;20426;-57
2023/05/03 05:22:45;;;;;;;11.05;7.50;;;;;;;4.07;67.45;101536.97;5043209;28;20052;-58
2023/05/03 05:25:14;;;;;;;12.13;8.40;;;;;;;4.17;67.62;101529.97;5047222;28;20052;-57
2023/05/03 05:27:41;;;;;;;8.63;6.65;;;;;;;4.26;67.26;101536.75;5033036;28;20053;-57
2023/05/03 05:30:09;;;;;;;9.95;7.20;;;;;;;4.32;66.69;101535.78;5036395;28;20066;-58
2023/05/03 05:32:37;;;;;;;12.48;7.47;;;;;;;4.42;67.23;101541.47;5048531;28;20386;-57
2023/05/03 05:35:04;;;;;;;12.02;7.57;;;;;;;4.45;67.23;101541.00;5043241;28;20415;-58
2023/05/03 05:37:32;;;;;;;9.82;7.47;;;;;;;4.63;66.44;101547.38;5046694;28;20491;-58
2023/05/03 05:40:00;;;;;;;12.27;7.55;;;;;;;4.77;65.72;101546.00;5053674;28;20498;-58
2023/05/03 05:42:30;;;;;;;12.88;7.85;;;;;;;4.80;65.93;101542.72;5054144;28;20052;-58
2023/05/03 05:44:58;;;;;;;12.38;8.63;;;;;;;4.92;66.00;101555.63;5054602;28;20049;-57
2023/05/03 05:47:26;;;;;;;12.70;8.45;;;;;;;4.93;65.70;101555.34;5054144;28;20056;-58
2023/05/03 05:49:54;;;;;;;12.23;7.78;;;;;;;5.00;65.78;101560.75;5054267;28;20049;-58
2023/05/03 05:52:22;;;;;;;11.60;7.47;;;;;;;5.17;65.41;101555.22;5053544;28;20052;-58
2023/05/03 05:54:50;;;;;;;13.20;8.45;;;;;;;5.06;66.12;101571.63;5054216;28;20060;-58
2023/05/03 05:57:18;;;;;;;10.23;8.15;;;;;;;5.23;65.99;101574.38;5053784;28;20053;-58
2023/05/03 05:59:47;;;;;;;11.60;8.70;;;;;;;5.34;65.77;101574.53;5054243;28;20061;-58
2023/05/03 06:02:17;;;;;;;11.30;7.45;;;;;;;5.49;65.53;101572.84;5053853;28;20429;-58
2023/05/03 06:04:45;;;;;;;9.80;7.22;;;;;;;5.66;65.60;101577.50;5054214;28;20060;-58
2023/05/03 06:07:13;;;;;;;11.73;7.40;;;;;;;5.78;65.13;101581.00;5053699;28;20056;-58
2023/05/03 06:09:41;;;;;;;10.52;7.13;;;;;;;5.92;64.82;101586.97;5053696;28;20092;-58
2023/05/03 06:12:09;;;;;;;10.63;7.13;;;;;;;6.03;64.70;101583.31;5054029;28;20390;-58
2023/05/03 06:14:36;;;;;;;10.20;7.57;;;;;;;6.13;64.63;101581.75;5053196;28;20064;-57
2023/05/03 06:17:05;;;;;;;11.98;7.30;;;;;;;6.27;64.66;101574.75;5053490;28;20076;-58
2023/05/03 06:19:32;;;;;;;12.90;7.40;;;;;;;6.44;64.67;101580.19;5053950;28;20056;-58
2023/05/03 06:21:59;;;;;;;12.55;8.27;;;;;;;6.52;64.19;101579.72;5053560;28;20053;-57
2023/05/03 06:24:29;;;;;;;11.27;8.15;;;;;;;6.70;64.37;101584.09;5053838;28;20071;-58
2023/05/03 06:26:58;;;;;;;10.82;7.38;;;;;;;6.84;63.81;101581.72;5053482;28;20053;-59
2023/05/03 06:29:27;;;;;;;10.43;7.13;;;;;;;6.98;64.06;101576.59;5053722;28;20053;-59
2023/05/03 06:31:54;;;;;;;11.23;6.93;;;;;;;7.14;63.97;101575.63;5053652;28;20464;-59
2023/05/03 06:34:23;;;;;;;10.18;7.38;;;;;;;7.22;63.58;101585.38;5053569;28;20053;-59
2023/05/03 06:36:50;;;;;;;10.98;6.85;;;;;;;7.38;63.53;101589.13;5053796;28;20483;-59
2023/05/03 06:39:19;;;;;;;10.90;7.35;;;;;;;7.46;63.32;101585.84;5053737;28;20059;-58
2023/05/03 06:41:47;;;;;;;12.07;8.00;;;;;;;7.62;62.81;101593.19;5053510;28;20049;-59
2023/05/03 06:44:14;;;;;;;11.60;8.07;;;;;;;7.79;62.94;101586.59;5053544;28;20053;-58
2023/05/03 06:46:41;;;;;;;10.50;7.63;;;;;;;7.90;62.59;101582.81;5053353;28;20049;-59
2023/05/03 06:49:09;;;;;;;11.10;8.38;;;;;;;8.03;60.99;101582.31;5053269;28;20490;-58
2023/05/03 06:51:37;;;;;;;11.43;8.45;;;;;;;8.18;61.05;101583.50;5052820;28;20072;-59
2023/05/03 06:54:08;;;;;;;11.05;8.30;;;;;;;8.30;61.95;101579.38;5053111;28;20060;-59
2023/05/03 06:56:36;;;;;;;13.77;8.60;;;;;;;8.46;60.02;101574.75;5052749;28;20406;-58
2023/05/03 06:59:04;;;;;;;13.57;8.43;;;;;;;8.63;61.10;101573.66;5052908;28;20417;-57
2023/05/03 07:01:32;;;;;;;10.25;7.60;;;;;;;8.82;60.59;101572.06;5053084;28;20052;-58
2023/05/03 07:04:00;;;;;;;10.15;7.72;;;;;;;8.98;60.88;101569.28;5052870;28;20053;-58
2023/05/03 07:06:27;;;;;;;11.00;7.50;;;;;;;9.13;60.04;101561.78;5052966;28;20056;-58
2023/05/03 07:08:55;;;;;;;12.90;8.15;;;;;;;9.29;60.30;101564.56;5052336;28;20057;-58
2023/05/03 07:11:23;;;;;;;9.50;7.38;;;;;;;9.53;59.78;101556.47;5052612;28;20060;-58
2023/05/03 07:13:51;;;;;;;11.30;7.38;;;;;;;9.68;58.68;101561.16;5052618;28;20395;-58
2023/05/03 07:16:19;;;;;;;9.73;6.53;;;;;;;9.91;56.90;101555.00;5052377;28;20067;-58
2023/05/03 07:18:46;;;;;;;8.90;6.13;;;;;;;10.46;56.52;101555.06;5052798;28;20390;-58
2023/05/03 07:21:14;;;;;;;9.00;6.85;;;;;;;11.25;55.18;101555.03;5052781;28;20410;-58
2023/05/03 07:23:41;;;;;;;9.20;6.53;;;;;;;12.13;53.21;101557.78;5052620;28;20057;-58
2023/05/03 07:26:10;;;;;;;8.55;6.10;;;;;;;13.04;50.14;101549.22;5052815;28;20060;-58
2023/05/03 07:28:37;;;;;;;9.98;5.63;;;;;;;13.98;48.57;101550.03;5052768;28;20052;-58
2023/05/03 07:31:05;;;;;;;8.23;6.07;;;;;;;14.83;45.96;101542.03;5052310;28;20057;-58
2023/05/03 07:33:36;;;;;;;8.70;5.47;;;;;;;15.69;44.52;101538.16;5052454;28;20063;-58
2023/05/03 07:36:03;;;;;;;9.45;5.95;;;;;;;16.41;42.60;101539.72;5052537;28;20063;-58
2023/05/03 07:38:30;;;;;;;6.97;5.22;;;;;;;17.17;42.02;101541.28;5052390;28;20057;-58
2023/05/03 07:40:58;;;;;;;6.63;4.60;;;;;;;18.11;39.52;101520.78;5052610;28;20068;-58
2023/05/03 07:43:26;;;;;;;7.05;4.90;;;;;;;19.01;37.59;101516.66;5052541;28;20064;-58
2023/05/03 07:45:53;;;;;;;6.18;4.60;;;;;;;20.15;36.33;101519.00;5052663;28;20398;-58
2023/05/03 07:48:21;;;;;;;5.88;4.50;;;;;;;21.03;34.02;101512.81;5052331;28;20060;-59
2023/05/03 07:50:48;;;;;;;7.55;4.75;;;;;;;21.56;32.95;101509.84;5052529;28;20049;-58
2023/05/03 07:53:15;;;;;;;6.25;4.00;;;;;;;22.11;31.24;101513.66;5052136;28;20049;-58
2023/05/03 07:55:42;;;;;;;6.45;3.67;;;;;;;22.75;29.19;101507.84;5052058;28;20053;-57
2023/05/03 07:58:10;;;;;;;6.95;3.88;;;;;;;23.54;28.97;101500.91;5051994;28;20395;-56
2023/05/03 08:00:38;;;;;;;6.10;4.15;;;;;;;24.21;27.43;101492.72;5052270;28;20405;-57
2023/05/03 08:03:05;;;;;;;6.05;3.92;;;;;;;25.02;26.63;101499.94;5051876;28;20052;-56
2023/05/03 08:05:35;;;;;;;7.03;3.63;;;;;;;25.58;26.35;101500.97;5052321;28;20478;-57
2023/05/03 08:08:04;;;;;;;3.97;3.25;;;;;;;26.49;24.27;101491.91;5051909;28;20537;-57
2023/05/03 08:10:36;;;;;;;5.40;3.53;;;;;;;27.73;22.87;101490.69;5051826;28;20513;-57
2023/05/03 08:13:04;;;;;;;5.35;2.80;;;;;;;28.25;21.31;101496.00;5051811;28;20072;-57
2023/05/03 08:15:32;;;;;;;5.45;2.92;;;;;;;28.34;21.92;101484.94;5051895;28;20061;-57
2023/05/03 08:18:00;;;;;;;4.72;2.92;;;;;;;27.37;22.29;101489.84;5051665;28;20053;-58
2023/05/03 08:20:28;;;;;;;3.60;3.20;;;;;;;26.86;22.43;101494.56;5054675;28;20063;-59
2023/05/03 08:22:56;;;;;;;6.22;3.03;;;;;;;26.37;22.20;101498.75;5055821;28;20060;-58
2023/05/03 08:25:24;;;;;;;4.25;3.10;;;;;;;27.24;22.70;101492.28;5055626;28;20049;-57
2023/05/03 08:27:52;;;;;;;5.05;3.10;;;;;;;28.56;20.75;101487.78;5055473;28;20048;-57
2023/05/03 08:30:20;;;;;;;5.70;2.72;;;;;;;26.91;22.22;101484.78;5055284;28;20049;-57
2023/05/03 08:32:48;;;;;;;5.55;3.17;;;;;;;26.56;22.81;101483.34;5055615;28;20064;-58
2023/05/03 08:35:16;;;;;;;3.85;2.97;;;;;;;27.22;22.78;101485.28;5055986;28;20052;-59
2023/05/03 08:37:44;;;;;;;6.18;3.30;;;;;;;27.69;21.89;101471.88;5055700;28;20049;-58
2023/05/03 08:40:13;;;;;;;4.38;3.08;;;;;;;27.93;21.51;101473.16;5055816;28;20371;-58
2023/05/03 08:42:41;;;;;;;;;;;;;;;28.11;20.47;101465.34;5055676;28;20057;-58
2023/05/03 08:45:11;;;;;;;6.65;3.15;;;;;;;29.62;19.19;101461.00;5055699;28;19924;-58
2023/05/03 08:47:40;;;;;;;7.47;3.20;;;;;;;28.79;20.07;101457.78;5055146;28;20056;-58
2023/05/03 08:50:09;;;;;;;4.88;3.25;;;;;;;27.78;20.70;101475.16;5055533;28;20056;-58
2023/05/03 08:52:39;;;;;;;5.28;3.20;;;;;;;28.54;20.28;101471.00;5055122;28;20045;-57
2023/05/03 08:55:08;;;;;;;3.70;2.85;;;;;;;29.46;18.57;101476.69;5055614;28;20049;-57
2023/05/03 08:57:36;;;;;;;4.43;3.10;;;;;;;29.68;18.75;101485.94;5054981;28;20049;-58
2023/05/03 09:00:09;;;;;;;4.70;2.67;;;;;;;29.86;18.55;101485.84;5055473;28;20410;-59
2023/05/03 09:02:38;;;;;;;3.92;2.10;;;;;;;30.37;18.64;101479.63;5055291;28;20045;-58
2023/05/03 09:05:06;;;;;;;;;;;;;;;31.22;18.05;101482.69;5056010;28;20140;-58
2023/05/03 09:07:33;;;;;;;3.28;2.22;;;;;;;32.59;16.79;101476.28;5054942;28;19928;-58
2023/05/03 09:10:02;;;;;;;4.15;2.50;;;;;;;33.66;16.38;101478.00;5055377;28;20068;-58
2023/05/03 09:12:35;;;;;;;;;;;;;;;33.19;15.97;101481.19;5055737;28;20457;-59
2023/05/03 09:15:05;;;;;;;3.30;2.30;;;;;;;34.19;15.22;101478.72;5054830;28;19944;-58
2023/05/03 09:17:32;;;;;;;3.53;2.47;;;;;;;34.45;15.95;101487.50;5055073;28;20048;-58
2023/05/03 09:20:00;;;;;;;4.03;2.40;;;;;;;35.14;14.32;101469.78;5055140;28;20052;-58
2023/05/03 09:22:31;;;;;;;3.00;2.10;;;;;;;35.88;13.85;101465.69;5055179;28;20409;-57
2023/05/03 09:25:02;;;;;;;3.58;2.17;;;;;;;35.22;14.44;101464.59;5055092;28;20057;-58
2023/05/03 09:27:30;;;;;;;4.28;2.08;;;;;;;34.80;14.96;101464.59;5054529;28;20053;-58
2023/05/03 09:29:57;;;;;;;4.00;2.40;;;;;;;35.82;15.09;101461.75;5054880;28;20060;-58
2023/05/03 09:32:25;;;;;;;2.55;2.00;;;;;;;36.82;14.44;101456.53;5054062;28;20057;-57
2023/05/03 09:35:09;;;;;;;3.47;2.55;;;;;;;37.65;13.07;101451.91;5054720;28;20394;-58
2023/05/03 09:37:37;;;;;;;2.97;2.20;;;;;;;37.75;12.87;101458.56;5054582;28;20509;-58
2023/05/03 09:40:11;;;;;;;2.53;2.03;;;;;;;37.21;13.58;101457.06;5054610;28;20057;-58
2023/05/03 09:42:42;;;;;;;3.65;2.22;;;;;;;37.15;13.50;101456.91;5054493;28;20469;-58
2023/05/03 09:45:10;;;;;;;3.22;2.40;;;;;;;37.91;12.67;101449.53;5054061;28;20056;-58
2023/05/03 09:47:50;;;;;;;4.40;2.03;;;;;;;37.20;13.39;101438.81;5054464;28;20406;-58
2023/05/03 09:50:17;;;;;;;4.80;2.35;;;;;;;37.29;13.37;101443.88;5054745;28;20478;-58
2023/05/03 09:52:45;;;;;;;4.80;2.28;;;;;;;37.21;13.48;101449.16;5054321;28;20072;-58
2023/05/03 09:55:16;;;;;;;2.65;2.00;;;;;;;37.61;12.64;101425.13;5054496;28;20064;-57
2023/05/03 09:57:47;;;;;;;5.28;1.95;;;;;;;38.03;12.54;101427.44;5054224;28;20053;-58
2023/05/03 10:00:16;;;;;;;3.53;2.05;;;;;;;38.60;12.14;101441.50;5054535;28;20076;-58
2023/05/03 10:02:46;;;;;;;4.40;2.17;;;;;;;38.49;12.60;101435.34;5053949;28;20406;-58
2023/05/03 10:05:15;;;;;;;4.50;2.30;;;;;;;38.92;11.93;101437.06;5054092;28;20387;-58
2023/05/03 10:07:43;;;;;;;4.13;2.10;;;;;;;38.86;11.63;101435.28;5053911;28;20391;-59
2023/05/03 10:10:11;;;;;;;3.53;2.00;;;;;;;37.97;12.82;101429.38;5054061;28;20053;-59
2023/05/03 10:12:40;;;;;;;3.03;1.90;;;;;;;38.23;12.66;101440.72;5053693;28;20053;-58
2023/05/03 10:15:10;;;;;;;3.03;2.42;;;;;;;38.44;11.98;101433.09;5053330;28;20056;-58
2023/05/03 10:17:40;;;;;;;5.45;2.00;;;;;;;37.60;13.00;101429.28;5053637;28;20521;-59
2023/05/03 10:20:14;;;;;;;3.05;2.00;;;;;;;37.90;12.39;101433.38;5054021;28;20056;-58
2023/05/03 10:23:09;;;;;;;3.55;2.00;;;;;;;37.89;12.82;101414.31;5053827;28;20383;-58
2023/05/03 10:25:38;;;;;;;3.75;1.98;;;;;;;38.71;12.12;101418.50;5053801;28;20486;-58
2023/05/03 10:28:08;;;;;;;3.17;2.28;;;;;;;39.01;12.24;101418.75;5053504;28;20049;-58
2023/05/03 10:30:36;;;;;;;4.00;2.05;;;;;;;39.47;11.67;101414.84;5053365;28;20048;-58
2023/05/03 10:33:29;;;;;;;2.83;1.80;;;;;;;39.73;11.66;101409.31;5053208;28;20060;-58
2023/05/03 10:35:57;;;;;;;3.60;2.00;;;;;;;40.75;11.15;101401.31;5053505;28;20053;-58
2023/05/03 10:38:26;;;;;;;3.38;1.98;;;;;;;40.60;10.98;101393.84;5053306;28;20406;-58
2023/05/03 10:40:59;;;;;;;3.00;1.95;;;;;;;41.77;11.08;101391.19;5053342;28;20052;-58
2023/05/03 10:43:44;;;;;;;3.97;1.85;;;;;;;41.61;11.01;101388.84;5052279;28;20063;-59
2023/05/03 10:46:33;;;;;;;4.63;2.42;;;;;;;41.81;10.14;101385.88;5052983;28;20502;-58
2023/05/03 10:49:16;;;;;;;3.88;2.08;;;;;;;41.42;10.92;101383.25;5053255;28;20060;-58
2023/05/03 10:51:44;;;;;;;3.53;2.08;;;;;;;41.86;10.37;101382.25;5052610;28;20053;-58
2023/05/03 10:54:12;;;;;;;3.58;1.90;;;;;;;42.22;10.51;101388.00;5053108;28;20056;-58
2023/05/03 10:56:48;;;;;;;3.67;2.40;;;;;;;42.48;10.00;101388.03;5052764;28;20057;-58
2023/05/03 10:59:17;;;;;;;3.20;2.30;;;;;;;42.51;10.03;101387.00;5053064;28;20057;-58
2023/05/03 11:01:45;;;;;;;4.70;2.20;;;;;;;42.55;10.23;101378.78;5052899;28;20053;-58
2023/05/03 11:04:18;;;;;;;3.20;1.80;;;;;;;43.06;9.58;101382.13;5052937;28;20501;-58
2023/05/03 11:06:50;;;;;;;3.15;2.17;;;;;;;42.46;10.40;101362.16;5052546;28;20060;-58
2023/05/03 11:09:17;;;;;;;5.28;2.10;;;;;;;42.39;10.16;101363.41;5052944;28;20053;-58
2023/05/03 11:11:44;;;;;;;4.43;2.30;;;;;;;42.37;10.25;101357.25;5052689;28;20056;-58
2023/05/03 11:14:12;;;;;;;3.90;2.10;;;;;;;42.53;9.60;101358.78;5052225;28;20060;-58
2023/05/03 11:16:46;;;;;;;3.75;2.00;;;;;;;41.53;10.83;101354.13;5052867;28;20463;-58
2023/05/03 11:19:14;;;;;;;6.97;2.20;;;;;;;41.90;10.26;101352.78;5052600;28;20049;-58
2023/05/03 11:21:43;;;;;;;4.20;2.10;;;;;;;42.30;10.14;101351.88;5052464;28;20068;-58
2023/05/03 11:24:10;;;;;;;5.00;1.98;;;;;;;41.94;10.59;101342.44;5052503;28;20053;-58
2023/05/03 11:26:37;;;;;;;5.03;2.58;;;;;;;41.93;10.26;101361.28;5052458;28;20056;-58
2023/05/03 11:29:19;;;;;;;3.83;2.00;;;;;;;42.35;10.60;101348.19;5055904;28;20394;-59
2023/05/03 11:31:48;;;;;;;2.65;1.98;;;;;;;42.55;10.03;101349.47;5055006;28;20053;-59
2023/05/03 11:34:15;;;;;;;4.05;2.17;;;;;;;42.43;10.55;101342.72;5052389;28;20056;-59
2023/05/03 11:36:43;;;;;;;2.78;1.90;;;;;;;43.09;10.02;101349.66;5052317;28;20410;-57